Etusivu
METAR-TAF:

METAR-TAF

Lentoasemat :

Kirkkoniemi, Norja

Leveyspiiri: 69-44N, Pituuspiiri: 029-54E, korkeus merenpinnasta: 9 m

Tämänhetkinen sää

Tämä raportti tehtiin 20 minuuttia sitten, kello 10.20 UTC
Tuuli 4 kn etelästä
Lämpötila -15°C
Kosteus 85%
Ilmanpaine 1025 hPa
Näkyvyys: 5000 m
Muutamia pilviä 400 ft:n korkeudessa
sumua näköpiirissä

METAR: ENKR 171020Z 19004KT 9999 5000S VCFG FEW004 M15/M17 Q1025 RMK WIND 731FT 20004KT

Aika: 11:40 (10:40 UTC)

Sääennuste

Tämä raportti tehtiin 2 tuntia ja 40 minuuttia sitten, kello 08.00 UTC
Ennuste voimassa 17. päivästä klo 09 UTC - 17. päivään klo 18 UTC
Tuuli 8 kn etelästä
Näkyvyys 10 km tai enemmän
Hajanaisia pilviä 500 ft:n korkeudessa
Hajonneita pilviä 1200 ft:n korkeudessa
Ajoittain
17. päivästä klo 09 UTC - 17. päivään klo 15 UTC
Näkyvyys: 4000 m
400 ft:n korkeudessa
utua

TAF: ENKR 170800Z 1709/1718 18008KT 9999 SCT005 BKN012 TEMPO 1709/1715 4000 BR VV004

Säähavainnot ja -ennusteet yli 4000 lentoasemalta (METAR- ja TAF-raportit).

Käytössä olevat sääasemat on merkitty karttaan keltaisilla ja punaisilla pisteillä.

Aseta hiiri pisteen päälle nähdäksesi sääaseman nimen.

Klikkaa sitten nähdäksesi säähavainnot ja -ennusteet.

Kartan vaihtaminen: klikkaa mustalla rastilla varustettuja vihreitä pisteitä, niin voit zoomata sisään; viivalla varustettua vihreää pistettä, niin voit zoomata ulos tai vihreitä nuolia, niin pääset viereisille kartoille.


METAR-TAF: